Airfield :
LOGIN :

Register | Disclaimer

   EN    FR    IT 

 










Legend :    VFR   Marginal VFR   IFR   Intensive IFR   Very Intensive IFR
Visi :
Ceiling :
>= 8 km
>= 3000ft
5 to 8 km
1000 to 3000 ft
1500m to 5 km
500 to 1000 ft
800 to 1500m
200 to 500 ft
< 800m
< 200 ft
Symbols :   Thunderstorms  Fog  Heavy snow  Heavy precipitations  Wind > 20 kt
SIGMETs :     Misc.  Thunderstorms  Icing  Turbulence  Mountain Waves  Volcanic Ashes






- Airport Elevation : 125 ft
- IATA code : MGL


EDLN - Mönchengladbach

CURRENT METAR :
  • 231450Z 25014G27KT 220V300 9999 SCT014 OVC031 13/10 Q1010

EXPIRED METARs :
  • 231420Z 26013G26KT 220V300 8000 -RA BKN012 OVC019 12/11 Q1010
  • 231350Z 25015G27KT 210V300 4200 -RA BKN012 OVC019 12/11 Q1010
  • 231320Z 25014G28KT 210V300 9000 -RA BKN011 OVC017 12/11 Q1010 RERA
  • 231250Z 25014G30KT 220V300 6000 RA BKN011 OVC019 12/11 Q1010
  • 231220Z 25015G30KT 210V290 4000 -RA BKN013 OVC019 12/11 Q1010

TAF TAF EDLN
Valid from the 23 at 15:00 until the 24 at 00:00 UTC


231400Z 2315/2324 24020G35KT 9999 BKN011
TEMPO 2315/2317 25030G45KT 4000 RA
BECMG 2317/2319 29015G25KT SCT012 BKN020
BECMG 2319/2321 28010KT



MET'MAP, your aeronautical weather chart ! - Copyright ORBIFLY December 2007 - Disclaimer

ORBIFLY MET'MAP TEAM :

Programming & Development : Alexandra Zaïnal
Concept & original design : Baudouin d'Aumeries
Assistance for programming : Marc-Olivier Méhu
Technical & hardware support : Manuel Goepfert

Contact : metmap@orbifly.com




SOURCES & CREDITS :

   NOAA